Time;durP1;ratioP1;P1;durP2;ratioP2;P2;SDS_P1;SDS_P2;PMS_P1;PMS_P2;Temp;Humidity;BMP_temperature;BMP_pressure;BME280_temperature;BME280_humidity;BME280_pressure;Samples;Min_cycle;Max_cycle;Signal;HPM_P1;HPM_P2
2022/09/30 00:01:16;;;;;;;0.60;0.50;;;20.60;57.70;;;;;;6293374;28;20028;-71
2022/09/30 00:04:20;;;;;;;2.05;1.10;;;20.60;57.60;;;;;;6293419;28;20623;-70
2022/09/30 00:07:20;;;;;;;0.85;0.70;;;20.60;57.60;;;;;;6293539;28;20670;-70
2022/09/30 00:10:21;;;;;;;1.02;0.80;;;20.60;57.50;;;;;;6291286;28;20024;-70
2022/09/30 00:13:22;;;;;;;1.13;0.82;;;20.70;57.70;;;;;;6293390;28;20024;-70
2022/09/30 00:16:25;;;;;;;0.80;0.73;;;20.60;57.60;;;;;;6293214;28;20016;-70
2022/09/30 00:19:26;;;;;;;1.13;0.90;;;20.60;57.60;;;;;;6291967;28;20016;-70
2022/09/30 00:22:27;;;;;;;1.55;0.93;;;20.60;57.50;;;;;;6292676;28;20035;-70
2022/09/30 00:25:27;;;;;;;0.63;0.63;;;20.60;57.60;;;;;;6292834;28;20565;-69
2022/09/30 00:28:29;;;;;;;1.02;0.82;;;20.60;57.60;;;;;;6291544;28;20457;-70
2022/09/30 00:31:32;;;;;;;0.73;0.73;;;20.60;57.50;;;;;;6291368;28;20059;-69
2022/09/30 00:34:33;;;;;;;1.20;0.90;;;20.60;57.50;;;;;;6292350;28;21138;-70
2022/09/30 00:37:34;;;;;;;1.17;0.90;;;20.60;57.50;;;;;;6292168;28;20024;-70
2022/09/30 00:40:37;;;;;;;1.40;0.80;;;20.60;57.60;;;;;;6292390;28;20028;-70
2022/09/30 00:43:50;;;;;;;1.10;0.90;;;20.60;57.60;;;;;;6292716;28;20031;-70
2022/09/30 00:46:50;;;;;;;0.80;0.70;;;20.60;57.60;;;;;;6289865;28;20016;-70
2022/09/30 00:49:52;;;;;;;1.58;0.95;;;20.60;57.50;;;;;;6291172;28;20131;-70
2022/09/30 00:53:09;;;;;;;0.70;0.70;;;20.60;57.60;;;;;;6290806;28;20035;-70
2022/09/30 00:56:15;;;;;;;1.65;1.08;;;20.60;57.50;;;;;;6292304;28;20532;-70
2022/09/30 00:59:21;;;;;;;1.10;0.95;;;20.60;57.60;;;;;;6290935;28;20024;-70
2022/09/30 01:02:23;;;;;;;1.17;0.90;;;20.60;57.50;;;;;;6292117;28;20390;-70
2022/09/30 01:05:25;;;;;;;2.17;1.00;;;20.60;58.20;;;;;;6291480;28;20020;-70
2022/09/30 01:08:26;;;;;;;1.13;1.02;;;20.60;57.50;;;;;;6292084;28;20028;-70
2022/09/30 01:11:28;;;;;;;2.22;1.08;;;20.60;57.50;;;;;;6291867;28;20381;-70
2022/09/30 01:14:29;;;;;;;1.80;0.95;;;20.60;57.50;;;;;;6291706;28;20090;-70
2022/09/30 01:17:41;;;;;;;1.58;1.02;;;20.60;57.50;;;;;;6292101;28;20024;-69
2022/09/30 01:21:15;;;;;;;1.27;0.80;;;20.60;57.50;;;;;;6291387;28;20020;-70
2022/09/30 01:24:34;;;;;;;1.20;1.00;;;20.60;57.50;;;;;;6291266;28;20028;-70
2022/09/30 01:28:08;;;;;;;1.63;1.13;;;20.60;57.50;;;;;;6291954;28;20448;-70
2022/09/30 01:31:28;;;;;;;0.98;0.80;;;20.60;57.50;;;;;;6291291;28;20162;-70
2022/09/30 01:35:11;;;;;;;1.27;1.02;;;20.60;57.60;;;;;;6289844;28;20032;-70
2022/09/30 01:38:28;;;;;;;1.17;1.00;;;20.60;57.50;;;;;;6291372;28;20025;-70
2022/09/30 01:41:53;;;;;;;1.05;0.93;;;20.60;57.50;;;;;;6290121;28;20032;-70
2022/09/30 01:45:03;;;;;;;1.23;0.90;;;20.60;57.50;;;;;;6283430;28;20104;-70
2022/09/30 01:48:42;;;;;;;1.38;1.00;;;20.60;57.60;;;;;;6287307;28;20068;-70
2022/09/30 01:52:02;;;;;;;1.30;1.13;;;20.60;57.50;;;;;;6291378;28;20052;-70
2022/09/30 01:55:12;;;;;;;1.25;1.08;;;20.60;57.50;;;;;;6291132;28;20028;-70
2022/09/30 01:58:20;;;;;;;2.17;1.10;;;20.60;58.20;;;;;;6291302;28;20028;-70
2022/09/30 02:01:30;;;;;;;1.13;0.93;;;20.60;57.50;;;;;;6291911;28;20028;-70
2022/09/30 02:04:36;;;;;;;1.45;1.27;;;20.60;57.50;;;;;;6291064;28;20531;-70
2022/09/30 02:07:48;;;;;;;1.00;0.90;;;20.60;57.60;;;;;;6290024;28;20078;-69
2022/09/30 02:11:01;;;;;;;1.65;0.95;;;20.60;57.50;;;;;;6291207;28;20056;-69
2022/09/30 02:14:22;;;;;;;2.10;1.10;;;20.60;57.50;;;;;;6291088;28;20429;-70
2022/09/30 02:17:32;;;;;;;2.17;1.10;;;20.60;57.60;;;;;;6289969;28;20561;-69
2022/09/30 02:20:39;;;;;;;1.25;1.15;;;20.60;57.50;;;;;;6290229;28;20524;-70
2022/09/30 02:23:43;;;;;;;1.67;1.10;;;20.60;57.50;;;;;;6289760;28;20024;-70
2022/09/30 02:26:46;;;;;;;1.63;1.13;;;20.60;57.40;;;;;;6290778;28;20017;-70
2022/09/30 02:29:54;;;;;;;1.58;1.08;;;20.60;57.50;;;;;;6289927;28;20029;-70
2022/09/30 02:33:00;;;;;;;1.52;0.85;;;20.60;57.50;;;;;;6292214;28;20024;-70
2022/09/30 02:36:26;;;;;;;1.50;0.98;;;20.60;57.50;;;;;;6295699;28;20461;-70
2022/09/30 02:39:46;;;;;;;1.30;1.05;;;20.60;57.40;;;;;;6271221;28;20025;-70
2022/09/30 02:42:48;;;;;;;2.15;1.20;;;20.60;57.50;;;;;;6282549;28;20016;-70
2022/09/30 02:46:16;;;;;;;1.40;1.02;;;20.60;57.50;;;;;;6282707;28;20082;-70
2022/09/30 02:49:41;;;;;;;1.25;1.00;;;20.60;57.40;;;;;;6294017;28;20556;-70
2022/09/30 02:52:53;;;;;;;1.17;0.90;;;20.60;57.50;;;;;;6295163;28;20037;-70
2022/09/30 02:56:15;;;;;;;1.38;1.13;;;20.60;57.50;;;;;;6294949;28;20024;-70
2022/09/30 02:59:15;;;;;;;1.25;1.15;;;20.60;57.50;;;;;;6294117;28;20105;-70
2022/09/30 03:02:16;;;;;;;1.27;1.00;;;20.60;57.50;;;;;;6294953;28;20021;-70
2022/09/30 03:05:17;;;;;;;1.55;1.08;;;20.60;57.40;;;;;;6293674;28;20016;-69
2022/09/30 03:08:18;;;;;;;1.80;1.30;;;20.60;57.50;;;;;;6294670;28;20021;-70
2022/09/30 03:11:22;;;;;;;1.58;0.98;;;20.60;57.50;;;;;;6295094;28;20021;-70
2022/09/30 03:14:55;;;;;;;1.07;0.87;;;20.60;57.50;;;;;;6294819;28;20478;-70
2022/09/30 03:17:58;;;;;;;1.65;1.20;;;20.60;57.40;;;;;;6294586;28;20103;-70
2022/09/30 03:21:06;;;;;;;1.55;1.00;;;20.60;57.50;;;;;;6295088;28;20723;-70
2022/09/30 03:24:30;;;;;;;0.98;0.82;;;20.60;58.20;;;;;;6294515;28;20074;-70
2022/09/30 03:27:39;;;;;;;1.70;1.00;;;20.60;57.50;;;;;;6292885;28;20040;-70
2022/09/30 03:31:01;;;;;;;1.92;1.20;;;20.60;57.50;;;;;;6294719;28;20052;-70
2022/09/30 03:34:37;;;;;;;1.70;1.20;;;20.60;57.70;;;;;;6292573;28;20021;-70
2022/09/30 03:38:05;;;;;;;1.97;1.03;;;20.60;57.50;;;;;;6292756;28;20047;-70
2022/09/30 03:41:29;;;;;;;1.40;1.05;;;20.60;57.60;;;;;;6294634;28;20033;-70
2022/09/30 03:44:41;;;;;;;1.75;0.95;;;20.60;57.60;;;;;;6288261;28;20021;-70
2022/09/30 03:47:48;;;;;;;1.52;1.10;;;20.60;57.50;;;;;;6271274;28;20348;-70
2022/09/30 03:50:49;;;;;;;1.02;0.88;;;20.60;58.10;;;;;;6293860;28;20029;-70
2022/09/30 03:53:52;;;;;;;1.40;1.00;;;20.50;57.40;;;;;;6293663;28;20554;-70
2022/09/30 03:56:53;;;;;;;1.50;1.00;;;20.50;57.30;;;;;;6293595;28;20017;-70
2022/09/30 03:59:54;;;;;;;1.33;1.13;;;20.60;57.50;;;;;;6293776;28;20052;-70
2022/09/30 04:02:55;;;;;;;1.48;0.85;;;20.50;57.40;;;;;;6293414;28;20721;-70
2022/09/30 04:05:55;;;;;;;1.23;1.02;;;20.50;57.30;;;;;;6293782;28;20025;-70
2022/09/30 04:08:56;;;;;;;1.48;1.15;;;20.50;57.30;;;;;;6293130;28;20029;-70
2022/09/30 04:11:57;;;;;;;0.82;0.80;;;20.50;57.40;;;;;;6292079;28;20500;-70
2022/09/30 04:14:57;;;;;;;1.00;0.80;;;20.50;57.30;;;;;;6292104;28;20673;-69
2022/09/30 04:17:58;;;;;;;1.73;1.13;;;20.50;57.30;;;;;;6292703;28;20449;-70
2022/09/30 04:20:59;;;;;;;1.27;1.08;;;20.60;57.40;;;;;;6293564;28;20028;-70
2022/09/30 04:24:00;;;;;;;2.33;1.15;;;20.50;57.40;;;;;;6292892;28;20020;-70
2022/09/30 04:27:02;;;;;;;1.77;1.20;;;20.50;57.30;;;;;;6293173;28;20047;-70
2022/09/30 04:30:03;;;;;;;1.10;1.00;;;20.50;57.30;;;;;;6292718;28;20401;-70
2022/09/30 04:33:04;;;;;;;1.25;1.00;;;20.50;57.30;;;;;;6291674;28;20025;-70
2022/09/30 04:36:05;;;;;;;1.80;1.17;;;20.50;57.30;;;;;;6291185;28;20090;-70
2022/09/30 04:39:06;;;;;;;1.23;0.90;;;20.50;57.30;;;;;;6292455;28;20386;-70
2022/09/30 04:42:07;;;;;;;1.02;0.93;;;20.50;57.30;;;;;;6292867;28;20023;-70
2022/09/30 04:45:13;;;;;;;1.13;1.00;;;20.50;57.30;;;;;;6283974;28;20025;-70
2022/09/30 04:48:15;;;;;;;1.20;0.90;;;20.50;57.30;;;;;;6267521;28;20067;-70
2022/09/30 04:51:18;;;;;;;1.35;1.10;;;20.50;57.30;;;;;;6291257;28;20028;-70
2022/09/30 04:54:19;;;;;;;1.00;0.80;;;20.50;57.30;;;;;;6292815;28;20032;-70
2022/09/30 04:57:20;;;;;;;1.67;1.25;;;20.50;57.30;;;;;;6291935;28;20025;-70
2022/09/30 05:00:33;;;;;;;1.35;1.08;;;20.50;57.30;;;;;;6292199;28;20025;-70
2022/09/30 05:03:34;;;;;;;1.15;1.00;;;20.50;57.40;;;;;;6285382;28;20052;-70
2022/09/30 05:06:35;;;;;;;1.13;0.98;;;20.50;57.40;;;;;;6291022;28;20028;-70
2022/09/30 05:09:36;;;;;;;1.20;1.00;;;20.50;57.30;;;;;;6291946;28;20023;-70
2022/09/30 05:12:41;;;;;;;1.67;1.05;;;20.50;57.30;;;;;;6292024;28;20599;-69
2022/09/30 05:15:42;;;;;;;1.38;1.08;;;20.50;57.40;;;;;;6290721;28;20029;-69
2022/09/30 05:18:45;;;;;;;1.45;1.10;;;20.50;57.30;;;;;;6291757;28;20086;-70
2022/09/30 05:21:46;;;;;;;1.17;1.00;;;20.50;57.30;;;;;;6290481;28;20037;-69
2022/09/30 05:24:47;;;;;;;1.58;1.23;;;20.50;57.30;;;;;;6290748;28;20033;-70
2022/09/30 05:27:49;;;;;;;1.50;1.13;;;20.50;57.30;;;;;;6292147;28;20442;-70
2022/09/30 05:30:58;;;;;;;1.55;1.17;;;20.50;57.30;;;;;;6278130;28;20048;-73
2022/09/30 05:33:59;;;;;;;2.72;1.60;;;20.50;57.40;;;;;;6289221;28;20020;-69
2022/09/30 05:37:00;;;;;;;3.83;1.80;;;20.50;57.60;;;;;;6289551;28;20556;-70
2022/09/30 05:40:01;;;;;;;3.10;1.67;;;20.50;57.20;;;;;;6291412;28;20023;-70
2022/09/30 05:43:01;;;;;;;4.05;2.47;;;20.50;56.70;;;;;;6290549;28;20382;-69
2022/09/30 05:46:02;;;;;;;5.05;2.90;;;20.50;56.60;;;;;;6289322;28;20037;-70
2022/09/30 05:49:03;;;;;;;5.05;2.90;;;20.40;55.30;;;;;;6290413;28;20052;-70
2022/09/30 05:52:04;;;;;;;7.47;3.50;;;20.40;54.80;;;;;;6290669;28;20074;-71
2022/09/30 05:55:05;;;;;;;7.70;3.88;;;20.40;55.60;;;;;;6289667;28;20108;-71
2022/09/30 05:58:05;;;;;;;9.55;4.18;;;20.40;53.90;;;;;;6289843;28;20539;-71
2022/09/30 06:01:09;;;;;;;8.23;4.43;;;20.40;54.30;;;;;;6295344;28;20052;-71
2022/09/30 06:04:10;;;;;;;7.77;4.03;;;20.50;53.70;;;;;;6292184;28;20031;-71
2022/09/30 06:07:12;;;;;;;9.07;3.90;;;20.50;53.90;;;;;;6298834;28;20497;-71
2022/09/30 06:10:13;;;;;;;8.95;4.55;;;20.50;53.80;;;;;;6297642;28;20470;-71
2022/09/30 06:13:15;;;;;;;8.88;4.28;;;20.60;54.20;;;;;;6297458;28;20113;-71
2022/09/30 06:16:18;;;;;;;9.70;3.67;;;20.60;54.30;;;;;;6297175;28;20567;-73
2022/09/30 06:19:18;;;;;;;6.13;3.95;;;20.60;54.50;;;;;;6296865;28;20020;-71
2022/09/30 06:22:19;;;;;;;7.15;4.13;;;20.60;54.80;;;;;;6296005;28;20078;-71
2022/09/30 06:25:21;;;;;;;5.57;3.70;;;20.60;54.90;;;;;;6314442;28;20469;-70
2022/09/30 06:28:22;;;;;;;7.15;4.32;;;20.60;54.50;;;;;;6296201;28;20028;-71
2022/09/30 06:31:23;;;;;;;11.65;4.32;;;20.60;54.80;;;;;;6287959;28;20085;-71
2022/09/30 06:34:24;;;;;;;7.15;3.78;;;20.60;54.50;;;;;;6296597;28;20449;-71
2022/09/30 06:37:24;;;;;;;8.50;3.90;;;20.50;54.20;;;;;;6296650;28;20116;-71
2022/09/30 06:40:25;;;;;;;7.18;4.13;;;20.60;54.60;;;;;;6279348;28;20041;-71
2022/09/30 06:43:26;;;;;;;8.23;3.83;;;20.60;54.40;;;;;;6296933;28;20032;-70
2022/09/30 06:46:26;;;;;;;6.88;3.85;;;20.60;54.50;;;;;;6286252;28;20025;-70
2022/09/30 06:49:27;;;;;;;10.35;4.00;;;20.60;54.50;;;;;;6296394;28;20447;-70
2022/09/30 06:52:28;;;;;;;7.07;3.97;;;20.60;54.60;;;;;;6296746;28;20074;-70
2022/09/30 06:55:29;;;;;;;7.85;4.40;;;20.60;55.70;;;;;;6294862;28;20111;-70
2022/09/30 06:58:30;;;;;;;5.70;3.78;;;20.60;55.00;;;;;;6295073;28;20071;-70
2022/09/30 07:01:30;;;;;;;10.50;4.25;;;20.60;55.00;;;;;;6296084;28;20074;-70
2022/09/30 07:04:31;;;;;;;7.18;3.95;;;20.60;55.00;;;;;;6296106;28;20546;-70
2022/09/30 07:07:35;;;;;;;6.72;3.80;;;20.60;55.10;;;;;;6296554;28;20452;-70
2022/09/30 07:10:37;;;;;;;5.60;3.30;;;20.60;55.10;;;;;;6295513;28;20082;-70
2022/09/30 07:13:38;;;;;;;7.57;3.28;;;20.60;55.10;;;;;;6295741;28;20067;-70
2022/09/30 07:16:39;;;;;;;9.68;3.78;;;20.60;55.10;;;;;;6296044;28;20040;-70
2022/09/30 07:19:39;;;;;;;6.25;3.60;;;20.60;55.20;;;;;;6296426;28;20020;-70
2022/09/30 07:22:41;;;;;;;6.90;3.58;;;20.60;55.20;;;;;;6295504;28;20025;-70
2022/09/30 07:26:03;;;;;;;6.60;3.75;;;20.60;55.30;;;;;;6302492;28;20027;-70
2022/09/30 07:29:06;;;;;;;7.55;3.70;;;20.60;55.30;;;;;;6273825;28;20621;-70
2022/09/30 07:32:07;;;;;;;5.05;3.53;;;20.60;55.30;;;;;;6294338;28;20154;-70
2022/09/30 07:35:08;;;;;;;5.07;3.30;;;20.60;55.40;;;;;;6293244;28;20021;-70
2022/09/30 07:38:09;;;;;;;6.47;3.30;;;20.60;55.40;;;;;;6295677;28;20021;-70
2022/09/30 07:41:15;;;;;;;4.95;3.33;;;20.60;55.40;;;;;;6298540;28;20028;-70
2022/09/30 07:44:16;;;;;;;4.63;2.90;;;20.60;55.50;;;;;;6269854;28;22132;-70
2022/09/30 07:47:17;;;;;;;5.63;3.30;;;20.60;55.50;;;;;;6294668;28;20040;-69
2022/09/30 07:50:17;;;;;;;6.35;3.30;;;20.60;55.50;;;;;;6290733;28;20028;-71
2022/09/30 07:53:19;;;;;;;7.55;3.88;;;20.60;55.50;;;;;;6289531;28;20082;-70
2022/09/30 07:56:22;;;;;;;4.80;3.47;;;20.60;55.60;;;;;;6294100;28;20013;-70
2022/09/30 07:59:26;;;;;;;6.20;3.60;;;20.60;55.20;;;;;;6298426;28;20099;-72
2022/09/30 08:02:26;;;;;;;5.65;3.38;;;20.60;55.20;;;;;;6294018;28;20089;-71
2022/09/30 08:05:27;;;;;;;4.35;3.03;;;20.60;55.30;;;;;;6293714;28;20024;-71
2022/09/30 08:08:27;;;;;;;6.93;2.97;;;20.70;55.50;;;;;;6295041;28;20032;-71
2022/09/30 08:11:32;;;;;;;11.10;3.30;;;20.70;55.40;;;;;;6283132;28;20378;-71
2022/09/30 08:14:33;;;;;;;7.20;3.28;;;20.70;55.40;;;;;;6295672;28;20032;-71
2022/09/30 08:17:34;;;;;;;6.50;3.67;;;20.70;55.50;;;;;;6293428;28;20473;-69
2022/09/30 08:20:35;;;;;;;5.32;3.22;;;20.60;55.60;;;;;;6292916;28;20035;-69
2022/09/30 08:23:35;;;;;;;8.85;3.45;;;20.60;55.80;;;;;;6292582;28;20099;-69
2022/09/30 08:26:37;;;;;;;12.52;3.92;;;20.60;55.60;;;;;;6292885;28;20036;-69
2022/09/30 08:29:38;;;;;;;7.65;3.72;;;20.60;55.40;;;;;;6297115;28;20020;-69
2022/09/30 08:32:38;;;;;;;10.40;3.83;;;20.60;55.30;;;;;;6293689;28;20109;-69
2022/09/30 08:35:39;;;;;;;9.63;3.78;;;20.60;55.10;;;;;;6292254;28;20024;-70
2022/09/30 08:38:40;;;;;;;7.32;3.90;;;20.60;54.50;;;;;;6293615;28;20458;-71
2022/09/30 08:42:29;;;;;;;7.78;3.83;;;20.60;54.30;;;;;;6296383;28;20043;-70
2022/09/30 08:46:04;;;;;;;8.48;4.53;;;20.60;54.30;;;;;;6279031;28;20493;-70
2022/09/30 08:49:23;;;;;;;9.63;4.30;;;20.60;54.30;;;;;;6294292;28;20049;-71
2022/09/30 08:52:38;;;;;;;11.68;4.50;;;20.60;54.40;;;;;;6289783;28;20371;-71
2022/09/30 08:55:42;;;;;;;16.00;4.40;;;20.60;53.50;;;;;;6283041;28;20028;-71
2022/09/30 08:58:45;;;;;;;12.27;4.03;;;20.60;53.50;;;;;;6292610;28;20078;-71
2022/09/30 09:01:50;;;;;;;14.75;4.10;;;20.60;54.20;;;;;;6291754;28;20025;-72
2022/09/30 09:04:51;;;;;;;;;;;20.60;54.20;;;;;;6287241;28;20273;-70
2022/09/30 09:08:38;;;;;;;11.40;3.88;;;20.60;54.00;;;;;;6277814;28;20374;-70
2022/09/30 09:12:04;;;;;;;4.95;3.15;;;20.60;54.30;;;;;;6282924;28;20040;-71
2022/09/30 09:15:23;;;;;;;5.47;3.45;;;20.60;54.30;;;;;;6294810;28;20114;-70
2022/09/30 09:18:52;;;;;;;5.78;3.65;;;20.60;54.60;;;;;;6292409;28;20024;-70
2022/09/30 09:21:56;;;;;;;8.10;4.13;;;20.60;54.50;;;;;;6297789;28;20380;-70
2022/09/30 09:24:57;;;;;;;8.20;3.60;;;20.60;54.40;;;;;;6300245;28;20048;-70
2022/09/30 09:28:01;;;;;;;7.97;3.83;;;20.60;54.60;;;;;;6286330;28;20028;-70
2022/09/30 09:31:03;;;;;;;6.18;3.50;;;20.60;54.70;;;;;;6298930;28;20036;-70
2022/09/30 09:34:11;;;;;;;5.45;3.25;;;20.60;54.80;;;;;;6291578;28;20020;-72
2022/09/30 09:41:08;;;;;;;7.75;3.28;;;20.60;54.80;;;;;;6283496;28;20028;-69
2022/09/30 09:44:24;;;;;;;10.13;3.45;;;20.60;54.90;;;;;;6277563;28;20024;-70
2022/09/30 09:47:24;;;;;;;9.23;3.75;;;20.60;54.60;;;;;;6298772;28;20083;-70
2022/09/30 09:50:44;;;;;;;6.03;3.40;;;20.60;54.30;;;;;;6297482;28;20021;-70
2022/09/30 09:53:52;;;;;;;6.22;3.35;;;20.60;54.40;;;;;;6299056;28;20032;-70
2022/09/30 09:56:53;;;;;;;6.38;3.13;;;20.60;54.30;;;;;;6295657;28;20136;-71
2022/09/30 10:01:03;;;;;;;8.25;3.17;;;20.60;54.50;;;;;;6296591;28;20028;-70
2022/09/30 10:03:27;;;;;;;6.85;3.15;;;20.60;54.40;;;;;;6296620;28;20481;-70
2022/09/30 10:06:46;;;;;;;4.80;2.80;;;20.60;54.50;;;;;;6303879;28;20031;-70
2022/09/30 10:09:46;;;;;;;6.07;2.88;;;20.60;54.60;;;;;;6297906;28;20028;-71
2022/09/30 10:12:47;;;;;;;4.82;3.22;;;20.60;54.50;;;;;;6291433;28;20035;-70
2022/09/30 10:15:52;;;;;;;4.82;2.83;;;20.60;54.60;;;;;;6295215;28;20028;-70
2022/09/30 10:18:53;;;;;;;5.13;2.88;;;20.60;54.50;;;;;;6292599;28;20032;-70
2022/09/30 10:22:10;;;;;;;4.63;2.70;;;20.60;54.60;;;;;;6290505;28;20075;-70
2022/09/30 10:25:17;;;;;;;4.20;2.53;;;20.60;54.60;;;;;;6308571;28;20078;-70
2022/09/30 10:28:27;;;;;;;3.88;2.88;;;20.60;54.70;;;;;;6306904;28;20024;-71
2022/09/30 10:31:42;;;;;;;4.93;2.90;;;20.60;54.60;;;;;;6295934;28;20021;-71
2022/09/30 10:34:43;;;;;;;4.40;2.90;;;20.60;54.60;;;;;;6299367;28;20051;-71
2022/09/30 10:37:52;;;;;;;4.90;2.67;;;20.60;54.70;;;;;;6299399;28;20028;-70
2022/09/30 10:40:53;;;;;;;3.13;2.30;;;20.60;54.80;;;;;;6297806;28;20037;-70
2022/09/30 10:44:00;;;;;;;4.28;2.55;;;20.60;54.80;;;;;;6297602;28;20106;-71
2022/09/30 10:47:02;;;;;;;3.75;2.47;;;20.60;54.80;;;;;;6298820;28;20027;-70
2022/09/30 10:50:15;;;;;;;4.60;2.67;;;20.60;54.80;;;;;;6299245;28;20021;-70
2022/09/30 10:53:25;;;;;;;4.40;2.78;;;20.60;54.80;;;;;;6298723;28;20016;-70
2022/09/30 10:56:39;;;;;;;10.52;2.65;;;20.60;54.80;;;;;;6298894;28;20055;-71
2022/09/30 10:59:42;;;;;;;3.42;2.63;;;20.70;55.10;;;;;;6274272;28;20486;-69
2022/09/30 11:03:13;;;;;;;9.80;2.40;;;20.80;55.30;;;;;;6273994;28;20056;-70
2022/09/30 11:06:14;;;;;;;5.85;2.15;;;20.90;55.20;;;;;;6296560;28;20035;-71
2022/09/30 11:09:36;;;;;;;5.18;2.60;;;20.90;54.80;;;;;;6311126;28;20028;-69
2022/09/30 11:12:49;;;;;;;3.42;2.22;;;20.90;54.70;;;;;;6314264;28;20017;-70
2022/09/30 11:16:08;;;;;;;3.88;2.40;;;20.80;54.80;;;;;;6295720;28;20019;-73
2022/09/30 11:19:20;;;;;;;3.30;1.98;;;20.80;54.80;;;;;;6297048;28;20020;-73
2022/09/30 11:22:43;;;;;;;2.78;2.10;;;20.90;54.80;;;;;;6298476;28;20040;-72
2022/09/30 11:26:12;;;;;;;4.20;2.20;;;20.90;54.90;;;;;;6289288;28;20123;-70
2022/09/30 11:29:36;;;;;;;3.22;1.98;;;20.90;54.60;;;;;;6281242;28;20041;-73
2022/09/30 11:33:14;;;;;;;8.15;1.92;;;20.90;54.70;;;;;;6279603;28;20111;-71
2022/09/30 11:36:33;;;;;;;4.22;2.33;;;20.90;54.60;;;;;;6272034;28;20436;-72
2022/09/30 11:40:13;;;;;;;2.80;1.88;;;21.00;54.50;;;;;;6283956;28;20027;-72
2022/09/30 11:43:19;;;;;;;4.03;2.10;;;21.00;54.50;;;;;;6297879;28;20051;-72
2022/09/30 11:46:54;;;;;;;8.23;2.53;;;21.00;54.60;;;;;;6297858;28;20461;-73
2022/09/30 11:50:16;;;;;;;3.58;2.13;;;21.00;54.60;;;;;;6297586;28;20131;-73
2022/09/30 11:53:30;;;;;;;5.57;2.40;;;21.00;54.50;;;;;;6296106;28;20024;-72
2022/09/30 11:56:53;;;;;;;12.40;2.97;;;21.10;54.70;;;;;;6272504;28;20025;-72
2022/09/30 12:00:27;;;;;;;10.35;2.83;;;21.10;54.60;;;;;;6295214;28;20433;-72
2022/09/30 12:03:42;;;;;;;19.25;3.28;;;21.10;54.80;;;;;;6295274;28;20042;-72
2022/09/30 12:07:16;;;;;;;10.80;2.47;;;21.10;54.70;;;;;;6280483;28;20028;-72
2022/09/30 12:10:30;;;;;;;8.13;2.58;;;21.10;54.80;;;;;;6297046;28;20500;-71
2022/09/30 12:13:53;;;;;;;14.05;2.58;;;21.10;54.80;;;;;;6295789;28;20029;-70
2022/09/30 12:16:56;;;;;;;8.43;2.42;;;21.10;55.00;;;;;;6289697;28;20094;-72
2022/09/30 12:20:15;;;;;;;7.38;2.70;;;21.10;55.00;;;;;;6295128;28;20409;-69
2022/09/30 12:23:34;;;;;;;9.55;2.38;;;21.00;55.10;;;;;;6295324;28;20028;-71
2022/09/30 12:26:35;;;;;;;6.55;2.10;;;21.00;55.10;;;;;;6294222;28;20056;-72
2022/09/30 12:33:42;;;;;;;7.13;2.30;;;21.00;55.00;;;;;;6296072;28;20401;-71
2022/09/30 12:36:53;;;;;;;6.10;2.00;;;21.00;55.10;;;;;;6294120;28;20051;-72
2022/09/30 12:40:16;;;;;;;3.63;2.20;;;21.00;55.10;;;;;;6301749;28;20477;-72
2022/09/30 12:43:45;;;;;;;6.97;2.13;;;21.00;55.20;;;;;;6320855;28;20021;-72
2022/09/30 12:46:55;;;;;;;5.38;2.72;;;21.00;55.20;;;;;;6317983;28;20024;-72
2022/09/30 12:49:59;;;;;;;4.50;1.80;;;21.00;55.20;;;;;;6313856;28;20041;-72
2022/09/30 12:53:22;;;;;;;5.05;2.45;;;21.00;55.30;;;;;;6295262;28;20040;-71
2022/09/30 12:56:27;;;;;;;3.58;2.10;;;21.00;55.40;;;;;;6311681;28;20047;-72
2022/09/30 12:59:44;;;;;;;6.90;2.13;;;21.00;55.30;;;;;;6319755;28;20047;-72
2022/09/30 13:02:57;;;;;;;6.18;1.98;;;21.00;55.20;;;;;;6294069;28;20504;-72
2022/09/30 13:06:05;;;;;;;5.20;2.20;;;21.00;55.30;;;;;;6292670;28;20082;-71
2022/09/30 13:09:17;;;;;;;5.53;2.30;;;21.00;55.40;;;;;;6294212;28;20052;-72
2022/09/30 13:12:45;;;;;;;3.95;2.22;;;21.00;55.40;;;;;;6293522;28;20059;-72
2022/09/30 13:15:46;;;;;;;6.28;2.25;;;21.00;55.50;;;;;;6280617;28;20017;-71
2022/09/30 13:18:47;;;;;;;6.07;2.00;;;21.00;55.40;;;;;;6295087;28;20029;-72
2022/09/30 13:21:47;;;;;;;3.88;2.10;;;21.00;55.50;;;;;;6294606;28;20028;-72
2022/09/30 13:25:03;;;;;;;3.53;1.95;;;21.00;55.40;;;;;;6319888;28;20028;-67
2022/09/30 13:28:38;;;;;;;6.40;2.08;;;21.00;55.40;;;;;;6318800;28;20074;-68
2022/09/30 13:31:44;;;;;;;2.47;1.80;;;21.00;55.40;;;;;;6319782;28;20370;-69
2022/09/30 13:34:54;;;;;;;7.13;1.83;;;21.00;55.10;;;;;;6319705;28;20132;-68
2022/09/30 13:38:13;;;;;;;3.92;2.33;;;20.90;54.50;;;;;;6270276;28;20024;-68
2022/09/30 13:41:21;;;;;;;5.65;2.20;;;20.90;54.10;;;;;;6269963;28;20495;-68
2022/09/30 13:44:37;;;;;;;2.40;1.90;;;20.90;54.10;;;;;;6286143;28;20094;-68
2022/09/30 13:47:55;;;;;;;7.30;2.50;;;20.90;53.70;;;;;;6292827;28;20075;-68
2022/09/30 13:50:58;;;;;;;3.92;1.95;;;20.90;53.60;;;;;;6294494;28;20472;-68
2022/09/30 13:54:07;;;;;;;3.63;2.10;;;20.90;53.30;;;;;;6294395;28;20048;-68
2022/09/30 13:57:18;;;;;;;3.90;2.05;;;20.90;53.10;;;;;;6291261;28;20123;-71
2022/09/30 14:00:21;;;;;;;5.78;1.83;;;20.90;53.00;;;;;;6294169;28;20063;-71
2022/09/30 14:03:59;;;;;;;3.78;1.80;;;20.90;53.10;;;;;;6294180;28;20031;-69
2022/09/30 14:07:37;;;;;;;3.45;1.98;;;20.90;53.20;;;;;;6305007;28;20042;-70
2022/09/30 14:11:06;;;;;;;6.18;2.03;;;20.90;53.60;;;;;;6315183;28;20074;-72
2022/09/30 14:14:25;;;;;;;2.70;1.65;;;20.90;53.60;;;;;;6292570;28;20044;-73
2022/09/30 14:17:54;;;;;;;4.82;1.88;;;20.90;53.90;;;;;;6287210;28;20483;-73
2022/09/30 14:21:13;;;;;;;2.45;1.50;;;20.90;54.00;;;;;;6292679;28;20029;-73
2022/09/30 14:24:20;;;;;;;2.13;1.58;;;20.90;54.10;;;;;;6292629;28;20021;-72
2022/09/30 14:27:52;;;;;;;4.18;1.60;;;20.90;54.30;;;;;;6293755;28;20020;-70
2022/09/30 14:31:11;;;;;;;3.33;1.67;;;20.90;54.30;;;;;;6295537;28;20095;-68
2022/09/30 14:34:14;;;;;;;4.60;1.90;;;20.90;54.40;;;;;;6289439;28;20035;-70
2022/09/30 14:37:29;;;;;;;3.85;1.60;;;20.90;54.40;;;;;;6308795;28;20028;-72
2022/09/30 14:40:32;;;;;;;2.33;1.52;;;20.90;54.50;;;;;;6314157;28;20099;-72
2022/09/30 14:43:39;;;;;;;5.70;1.70;;;20.90;54.60;;;;;;6297011;28;20031;-71
2022/09/30 14:46:45;;;;;;;2.90;1.75;;;20.90;54.60;;;;;;6300959;28;20024;-72
2022/09/30 14:49:46;;;;;;;3.08;1.80;;;20.90;54.70;;;;;;6294197;28;20053;-72
2022/09/30 14:52:48;;;;;;;2.85;1.60;;;20.90;54.70;;;;;;6294201;28;20043;-73
2022/09/30 14:55:49;;;;;;;3.00;1.55;;;20.90;54.70;;;;;;6322051;28;20012;-71
2022/09/30 14:58:51;;;;;;;3.95;1.60;;;20.90;54.70;;;;;;6299985;28;20028;-71
2022/09/30 15:01:59;;;;;;;3.53;1.67;;;20.90;55.00;;;;;;6298492;28;20074;-71
2022/09/30 15:05:03;;;;;;;5.63;1.75;;;20.90;55.00;;;;;;6297229;28;20135;-71
2022/09/30 15:08:18;;;;;;;2.13;1.50;;;20.90;55.10;;;;;;6298014;28;20100;-71
2022/09/30 15:11:21;;;;;;;7.75;1.63;;;20.80;55.00;;;;;;6281299;28;20389;-72
2022/09/30 15:14:23;;;;;;;2.05;1.40;;;20.80;55.10;;;;;;6295447;28;20069;-72
2022/09/30 15:17:26;;;;;;;2.70;1.50;;;20.80;55.10;;;;;;6292470;28;20053;-73
2022/09/30 15:20:33;;;;;;;1.85;1.38;;;20.80;55.20;;;;;;6297211;28;20067;-72
2022/09/30 15:23:36;;;;;;;2.80;1.50;;;20.80;55.30;;;;;;6296190;28;20020;-71
2022/09/30 15:26:37;;;;;;;2.05;1.45;;;20.80;55.30;;;;;;6290282;28;20071;-72
2022/09/30 15:29:53;;;;;;;2.03;1.70;;;20.80;55.40;;;;;;6292987;28;20107;-72
2022/09/30 15:33:02;;;;;;;2.60;1.70;;;20.80;55.40;;;;;;6298937;28;20536;-72
2022/09/30 15:36:16;;;;;;;5.80;1.63;;;20.80;55.50;;;;;;6307429;28;20432;-72
2022/09/30 15:40:44;;;;;;;1.85;1.50;;;20.80;55.50;;;;;;6307717;28;20029;-69
2022/09/30 15:42:54;;;;;;;2.65;1.40;;;20.80;55.60;;;;;;6296258;28;20048;-71
2022/09/30 15:45:55;;;;;;;1.95;1.30;;;20.80;55.60;;;;;;6301757;28;20031;-71
2022/09/30 15:49:07;;;;;;;2.90;1.17;;;20.80;55.60;;;;;;6294453;28;20045;-71
2022/09/30 15:52:26;;;;;;;1.77;1.42;;;20.80;55.60;;;;;;6296133;28;20028;-72
2022/09/30 15:55:42;;;;;;;2.53;2.00;;;20.80;55.60;;;;;;6312204;28;20016;-72
2022/09/30 15:59:15;;;;;;;2.58;1.30;;;20.80;55.60;;;;;;6321371;28;20446;-71
2022/09/30 16:02:16;;;;;;;3.55;1.52;;;20.80;55.60;;;;;;6291626;28;20401;-70
2022/09/30 16:05:19;;;;;;;3.53;1.35;;;20.80;55.60;;;;;;6293237;28;20025;-70
2022/09/30 16:08:27;;;;;;;1.98;1.25;;;20.80;55.70;;;;;;6292672;28;20130;-70
2022/09/30 16:11:29;;;;;;;1.52;1.05;;;20.80;55.70;;;;;;6279251;28;20051;-71
2022/09/30 16:15:13;;;;;;;2.40;1.50;;;20.80;55.70;;;;;;6282247;28;20026;-70
2022/09/30 16:18:22;;;;;;;5.32;1.30;;;20.80;55.80;;;;;;6266311;28;20028;-72
2022/09/30 16:21:28;;;;;;;2.10;1.30;;;20.80;55.90;;;;;;6284951;28;20423;-69
2022/09/30 16:24:31;;;;;;;2.15;1.27;;;20.80;55.90;;;;;;6294155;28;20119;-70
2022/09/30 16:27:32;;;;;;;2.70;1.30;;;20.80;56.00;;;;;;6260212;28;20028;-69
2022/09/30 16:30:32;;;;;;;1.88;1.30;;;20.80;56.00;;;;;;6262748;28;20032;-70